sensor_id;sensor_type;location;lat;lon;timestamp;temperature;humidity
15217;DHT22;7711;46.634;14.318;2024-01-07T00:01:28;2.40;1.00
15217;DHT22;7711;46.634;14.318;2024-01-07T00:03:56;2.40;1.00
15217;DHT22;7711;46.634;14.318;2024-01-07T00:06:24;2.50;1.00
15217;DHT22;7711;46.634;14.318;2024-01-07T00:08:50;2.50;1.00
15217;DHT22;7711;46.634;14.318;2024-01-07T00:11:17;2.50;1.00
15217;DHT22;7711;46.634;14.318;2024-01-07T00:13:45;2.40;1.00
15217;DHT22;7711;46.634;14.318;2024-01-07T00:16:12;2.50;1.00
15217;DHT22;7711;46.634;14.318;2024-01-07T00:18:39;2.50;1.00
15217;DHT22;7711;46.634;14.318;2024-01-07T00:21:08;2.50;1.00
15217;DHT22;7711;46.634;14.318;2024-01-07T00:23:34;2.50;1.00
15217;DHT22;7711;46.634;14.318;2024-01-07T00:26:02;2.50;1.00
15217;DHT22;7711;46.634;14.318;2024-01-07T00:28:29;2.50;1.00
15217;DHT22;7711;46.634;14.318;2024-01-07T00:30:56;2.50;1.00
15217;DHT22;7711;46.634;14.318;2024-01-07T00:33:23;2.50;1.00
15217;DHT22;7711;46.634;14.318;2024-01-07T00:35:50;2.50;1.00
15217;DHT22;7711;46.634;14.318;2024-01-07T00:38:18;2.50;1.00
15217;DHT22;7711;46.634;14.318;2024-01-07T00:40:45;2.50;1.00
15217;DHT22;7711;46.634;14.318;2024-01-07T00:43:12;2.40;1.00
15217;DHT22;7711;46.634;14.318;2024-01-07T00:45:39;2.40;1.00
15217;DHT22;7711;46.634;14.318;2024-01-07T00:48:06;2.40;1.00
15217;DHT22;7711;46.634;14.318;2024-01-07T00:50:33;2.40;1.00
15217;DHT22;7711;46.634;14.318;2024-01-07T00:53:00;2.40;1.00
15217;DHT22;7711;46.634;14.318;2024-01-07T00:55:29;2.40;1.00
15217;DHT22;7711;46.634;14.318;2024-01-07T00:57:56;2.40;1.00
15217;DHT22;7711;46.634;14.318;2024-01-07T01:00:23;2.40;1.00
15217;DHT22;7711;46.634;14.318;2024-01-07T01:02:50;2.40;1.00
15217;DHT22;7711;46.634;14.318;2024-01-07T01:05:17;2.40;1.00
15217;DHT22;7711;46.634;14.318;2024-01-07T01:07:44;2.40;1.00
15217;DHT22;7711;46.634;14.318;2024-01-07T01:10:10;2.40;1.00
15217;DHT22;7711;46.634;14.318;2024-01-07T01:12:40;2.40;1.00
15217;DHT22;7711;46.634;14.318;2024-01-07T01:15:07;2.40;1.00
15217;DHT22;7711;46.634;14.318;2024-01-07T01:17:34;2.30;1.00
15217;DHT22;7711;46.634;14.318;2024-01-07T01:20:01;2.30;1.00
15217;DHT22;7711;46.634;14.318;2024-01-07T01:22:28;2.30;1.00
15217;DHT22;7711;46.634;14.318;2024-01-07T01:24:55;2.30;1.00
15217;DHT22;7711;46.634;14.318;2024-01-07T01:27:22;2.30;1.00
15217;DHT22;7711;46.634;14.318;2024-01-07T01:29:51;2.30;1.00
15217;DHT22;7711;46.634;14.318;2024-01-07T01:32:18;2.30;1.00
15217;DHT22;7711;46.634;14.318;2024-01-07T01:34:45;2.30;1.00
15217;DHT22;7711;46.634;14.318;2024-01-07T01:37:12;2.30;1.00
15217;DHT22;7711;46.634;14.318;2024-01-07T01:39:40;2.30;1.00
15217;DHT22;7711;46.634;14.318;2024-01-07T01:42:06;2.20;1.00
15217;DHT22;7711;46.634;14.318;2024-01-07T01:44:34;2.30;1.00
15217;DHT22;7711;46.634;14.318;2024-01-07T01:47:02;2.30;1.00
15217;DHT22;7711;46.634;14.318;2024-01-07T01:49:29;2.30;1.00
15217;DHT22;7711;46.634;14.318;2024-01-07T01:51:57;2.20;1.00
15217;DHT22;7711;46.634;14.318;2024-01-07T01:54:24;2.30;1.00
15217;DHT22;7711;46.634;14.318;2024-01-07T01:56:51;2.30;1.00
15217;DHT22;7711;46.634;14.318;2024-01-07T01:59:18;2.30;1.00
15217;DHT22;7711;46.634;14.318;2024-01-07T02:01:46;2.30;1.00
15217;DHT22;7711;46.634;14.318;2024-01-07T02:04:15;2.30;1.00
15217;DHT22;7711;46.634;14.318;2024-01-07T02:06:44;2.40;1.00
15217;DHT22;7711;46.634;14.318;2024-01-07T02:09:11;2.30;1.00
15217;DHT22;7711;46.634;14.318;2024-01-07T02:11:38;2.30;1.00
15217;DHT22;7711;46.634;14.318;2024-01-07T02:14:05;2.20;1.00
15217;DHT22;7711;46.634;14.318;2024-01-07T02:16:33;2.20;1.00
15217;DHT22;7711;46.634;14.318;2024-01-07T02:19:00;2.20;1.00
15217;DHT22;7711;46.634;14.318;2024-01-07T02:21:28;2.30;1.00
15217;DHT22;7711;46.634;14.318;2024-01-07T02:23:55;2.20;1.00
15217;DHT22;7711;46.634;14.318;2024-01-07T02:26:24;2.20;1.00
15217;DHT22;7711;46.634;14.318;2024-01-07T02:28:51;2.20;1.00
15217;DHT22;7711;46.634;14.318;2024-01-07T02:31:18;2.20;1.00
15217;DHT22;7711;46.634;14.318;2024-01-07T02:33:45;2.20;1.00
15217;DHT22;7711;46.634;14.318;2024-01-07T02:36:12;2.10;1.00
15217;DHT22;7711;46.634;14.318;2024-01-07T02:38:39;2.10;1.00
15217;DHT22;7711;46.634;14.318;2024-01-07T02:41:06;2.20;1.00
15217;DHT22;7711;46.634;14.318;2024-01-07T02:43:34;2.20;1.00
15217;DHT22;7711;46.634;14.318;2024-01-07T02:46:01;2.10;1.00
15217;DHT22;7711;46.634;14.318;2024-01-07T02:48:28;2.10;1.00
15217;DHT22;7711;46.634;14.318;2024-01-07T02:50:56;2.10;1.00
15217;DHT22;7711;46.634;14.318;2024-01-07T02:53:22;2.10;1.00
15217;DHT22;7711;46.634;14.318;2024-01-07T02:55:49;2.20;1.00
15217;DHT22;7711;46.634;14.318;2024-01-07T02:58:16;2.20;1.00
15217;DHT22;7711;46.634;14.318;2024-01-07T03:00:45;2.20;1.00
15217;DHT22;7711;46.634;14.318;2024-01-07T03:03:11;2.20;1.00
15217;DHT22;7711;46.634;14.318;2024-01-07T03:05:39;2.30;5.10
15217;DHT22;7711;46.634;14.318;2024-01-07T03:08:06;2.30;1.00
15217;DHT22;7711;46.634;14.318;2024-01-07T03:10:33;2.30;1.00
15217;DHT22;7711;46.634;14.318;2024-01-07T03:13:00;2.30;1.00
15217;DHT22;7711;46.634;14.318;2024-01-07T03:15:27;2.30;1.00
15217;DHT22;7711;46.634;14.318;2024-01-07T03:17:57;2.30;1.00
15217;DHT22;7711;46.634;14.318;2024-01-07T03:20:24;2.40;1.00
15217;DHT22;7711;46.634;14.318;2024-01-07T03:22:51;2.30;1.00
15217;DHT22;7711;46.634;14.318;2024-01-07T03:25:18;2.30;1.00
15217;DHT22;7711;46.634;14.318;2024-01-07T03:27:45;2.30;1.00
15217;DHT22;7711;46.634;14.318;2024-01-07T03:30:12;2.40;1.00
15217;DHT22;7711;46.634;14.318;2024-01-07T03:32:39;2.40;1.00
15217;DHT22;7711;46.634;14.318;2024-01-07T03:35:08;2.40;1.00
15217;DHT22;7711;46.634;14.318;2024-01-07T03:37:35;2.40;1.00
15217;DHT22;7711;46.634;14.318;2024-01-07T03:40:02;2.50;1.00
15217;DHT22;7711;46.634;14.318;2024-01-07T03:42:29;2.40;1.00
15217;DHT22;7711;46.634;14.318;2024-01-07T03:44:56;2.40;1.00
15217;DHT22;7711;46.634;14.318;2024-01-07T03:47:23;2.40;1.00
15217;DHT22;7711;46.634;14.318;2024-01-07T03:49:50;2.40;1.00
15217;DHT22;7711;46.634;14.318;2024-01-07T03:52:18;2.50;1.00
15217;DHT22;7711;46.634;14.318;2024-01-07T03:54:45;2.40;1.00
15217;DHT22;7711;46.634;14.318;2024-01-07T03:57:12;2.40;1.00
15217;DHT22;7711;46.634;14.318;2024-01-07T03:59:39;2.40;1.00
15217;DHT22;7711;46.634;14.318;2024-01-07T04:02:06;2.40;1.00
15217;DHT22;7711;46.634;14.318;2024-01-07T04:04:33;2.40;1.00
15217;DHT22;7711;46.634;14.318;2024-01-07T04:07:01;2.50;1.00
15217;DHT22;7711;46.634;14.318;2024-01-07T04:09:29;2.50;1.00
15217;DHT22;7711;46.634;14.318;2024-01-07T04:11:57;2.50;1.00
15217;DHT22;7711;46.634;14.318;2024-01-07T04:14:24;2.50;1.00
15217;DHT22;7711;46.634;14.318;2024-01-07T04:16:53;2.50;1.00
15217;DHT22;7711;46.634;14.318;2024-01-07T04:19:20;2.60;1.00
15217;DHT22;7711;46.634;14.318;2024-01-07T04:21:47;2.60;1.00
15217;DHT22;7711;46.634;14.318;2024-01-07T04:24:14;2.50;1.00
15217;DHT22;7711;46.634;14.318;2024-01-07T04:26:42;2.50;1.00
15217;DHT22;7711;46.634;14.318;2024-01-07T04:29:09;2.50;1.00
15217;DHT22;7711;46.634;14.318;2024-01-07T04:31:36;2.60;1.00
15217;DHT22;7711;46.634;14.318;2024-01-07T04:34:03;2.50;1.00
15217;DHT22;7711;46.634;14.318;2024-01-07T04:36:30;2.50;1.00
15217;DHT22;7711;46.634;14.318;2024-01-07T04:38:57;2.50;1.00
15217;DHT22;7711;46.634;14.318;2024-01-07T04:41:24;2.50;1.00
15217;DHT22;7711;46.634;14.318;2024-01-07T04:43:52;2.50;1.00
15217;DHT22;7711;46.634;14.318;2024-01-07T04:46:19;2.50;1.00
15217;DHT22;7711;46.634;14.318;2024-01-07T04:48:46;2.50;1.00
15217;DHT22;7711;46.634;14.318;2024-01-07T04:51:14;2.50;1.00
15217;DHT22;7711;46.634;14.318;2024-01-07T04:53:40;2.50;1.00
15217;DHT22;7711;46.634;14.318;2024-01-07T04:56:07;2.50;1.00
15217;DHT22;7711;46.634;14.318;2024-01-07T04:58:34;2.40;1.00
15217;DHT22;7711;46.634;14.318;2024-01-07T05:01:03;2.40;1.00
15217;DHT22;7711;46.634;14.318;2024-01-07T05:03:30;2.40;1.00
15217;DHT22;7711;46.634;14.318;2024-01-07T05:05:57;2.40;1.00
15217;DHT22;7711;46.634;14.318;2024-01-07T05:08:24;2.50;1.00
15217;DHT22;7711;46.634;14.318;2024-01-07T05:10:51;2.50;1.00
15217;DHT22;7711;46.634;14.318;2024-01-07T05:13:18;2.40;1.00
15217;DHT22;7711;46.634;14.318;2024-01-07T05:15:45;2.40;1.00
15217;DHT22;7711;46.634;14.318;2024-01-07T05:18:20;2.40;1.00
15217;DHT22;7711;46.634;14.318;2024-01-07T05:20:47;2.40;1.00
15217;DHT22;7711;46.634;14.318;2024-01-07T05:23:14;2.40;1.00
15217;DHT22;7711;46.634;14.318;2024-01-07T05:25:42;2.30;1.00
15217;DHT22;7711;46.634;14.318;2024-01-07T05:28:10;2.30;1.00
15217;DHT22;7711;46.634;14.318;2024-01-07T05:30:37;2.40;1.00
15217;DHT22;7711;46.634;14.318;2024-01-07T05:33:05;2.30;1.00
15217;DHT22;7711;46.634;14.318;2024-01-07T05:35:33;2.30;1.00
15217;DHT22;7711;46.634;14.318;2024-01-07T05:38:00;2.30;1.00
15217;DHT22;7711;46.634;14.318;2024-01-07T05:40:27;2.20;1.00
15217;DHT22;7711;46.634;14.318;2024-01-07T05:42:54;2.30;1.00
15217;DHT22;7711;46.634;14.318;2024-01-07T05:45:21;2.20;99.90
15217;DHT22;7711;46.634;14.318;2024-01-07T05:47:47;2.20;99.90
15217;DHT22;7711;46.634;14.318;2024-01-07T05:50:15;2.20;99.90
15217;DHT22;7711;46.634;14.318;2024-01-07T05:52:46;2.10;99.90
15217;DHT22;7711;46.634;14.318;2024-01-07T05:55:13;2.20;99.90
15217;DHT22;7711;46.634;14.318;2024-01-07T05:57:39;2.10;99.90
15217;DHT22;7711;46.634;14.318;2024-01-07T06:00:08;2.10;99.90
15217;DHT22;7711;46.634;14.318;2024-01-07T06:02:36;2.10;99.90
15217;DHT22;7711;46.634;14.318;2024-01-07T06:05:03;2.10;99.90
15217;DHT22;7711;46.634;14.318;2024-01-07T06:07:30;2.10;99.90
15217;DHT22;7711;46.634;14.318;2024-01-07T06:09:59;2.00;99.90
15217;DHT22;7711;46.634;14.318;2024-01-07T06:12:26;2.00;99.90
15217;DHT22;7711;46.634;14.318;2024-01-07T06:14:53;1.90;99.90
15217;DHT22;7711;46.634;14.318;2024-01-07T06:17:20;1.90;99.90
15217;DHT22;7711;46.634;14.318;2024-01-07T06:19:47;1.90;99.90
15217;DHT22;7711;46.634;14.318;2024-01-07T06:22:14;1.80;99.90
15217;DHT22;7711;46.634;14.318;2024-01-07T06:24:41;1.80;99.90
15217;DHT22;7711;46.634;14.318;2024-01-07T06:27:09;1.80;99.90
15217;DHT22;7711;46.634;14.318;2024-01-07T06:29:36;1.80;99.90
15217;DHT22;7711;46.634;14.318;2024-01-07T06:32:03;1.90;1.00
15217;DHT22;7711;46.634;14.318;2024-01-07T06:34:30;1.90;99.90
15217;DHT22;7711;46.634;14.318;2024-01-07T06:36:59;1.90;99.90
15217;DHT22;7711;46.634;14.318;2024-01-07T06:39:26;1.90;99.90
15217;DHT22;7711;46.634;14.318;2024-01-07T06:41:53;2.00;99.90
15217;DHT22;7711;46.634;14.318;2024-01-07T06:44:21;1.90;99.90
15217;DHT22;7711;46.634;14.318;2024-01-07T06:46:48;1.90;99.90
15217;DHT22;7711;46.634;14.318;2024-01-07T06:49:15;1.90;99.90
15217;DHT22;7711;46.634;14.318;2024-01-07T06:51:43;1.80;99.90
15217;DHT22;7711;46.634;14.318;2024-01-07T06:54:10;1.90;99.90
15217;DHT22;7711;46.634;14.318;2024-01-07T06:56:37;1.90;99.90
15217;DHT22;7711;46.634;14.318;2024-01-07T06:59:04;1.80;99.90
15217;DHT22;7711;46.634;14.318;2024-01-07T07:01:34;1.90;99.90
15217;DHT22;7711;46.634;14.318;2024-01-07T07:04:01;1.90;99.90
15217;DHT22;7711;46.634;14.318;2024-01-07T07:06:28;1.90;99.90
15217;DHT22;7711;46.634;14.318;2024-01-07T07:08:55;1.90;99.90
15217;DHT22;7711;46.634;14.318;2024-01-07T07:11:21;2.00;99.90
15217;DHT22;7711;46.634;14.318;2024-01-07T07:13:48;2.00;99.90
15217;DHT22;7711;46.634;14.318;2024-01-07T07:16:15;2.00;99.90
15217;DHT22;7711;46.634;14.318;2024-01-07T07:18:44;2.00;99.90
15217;DHT22;7711;46.634;14.318;2024-01-07T07:21:10;2.00;99.90
15217;DHT22;7711;46.634;14.318;2024-01-07T07:23:37;2.10;99.90
15217;DHT22;7711;46.634;14.318;2024-01-07T07:26:04;2.10;99.90
15217;DHT22;7711;46.634;14.318;2024-01-07T07:28:32;2.10;99.90
15217;DHT22;7711;46.634;14.318;2024-01-07T07:30:59;2.10;99.90
15217;DHT22;7711;46.634;14.318;2024-01-07T07:33:26;2.10;99.90
15217;DHT22;7711;46.634;14.318;2024-01-07T07:35:54;2.10;99.90
15217;DHT22;7711;46.634;14.318;2024-01-07T07:38:21;2.10;90.30
15217;DHT22;7711;46.634;14.318;2024-01-07T07:40:48;2.20;6.90
15217;DHT22;7711;46.634;14.318;2024-01-07T07:43:18;2.20;43.30
15217;DHT22;7711;46.634;14.318;2024-01-07T07:45:45;2.20;17.30
15217;DHT22;7711;46.634;14.318;2024-01-07T07:48:12;2.30;3.80
15217;DHT22;7711;46.634;14.318;2024-01-07T07:50:39;2.20;7.90
15217;DHT22;7711;46.634;14.318;2024-01-07T07:53:08;2.20;1.00
15217;DHT22;7711;46.634;14.318;2024-01-07T07:55:35;2.30;1.00
15217;DHT22;7711;46.634;14.318;2024-01-07T07:58:02;2.30;1.00
15217;DHT22;7711;46.634;14.318;2024-01-07T08:00:29;2.30;1.00
15217;DHT22;7711;46.634;14.318;2024-01-07T08:02:56;2.40;1.00
15217;DHT22;7711;46.634;14.318;2024-01-07T08:05:23;2.40;1.00
15217;DHT22;7711;46.634;14.318;2024-01-07T08:07:50;2.40;1.00
15217;DHT22;7711;46.634;14.318;2024-01-07T08:10:18;2.40;1.00
15217;DHT22;7711;46.634;14.318;2024-01-07T08:12:46;2.40;1.00
15217;DHT22;7711;46.634;14.318;2024-01-07T08:15:15;2.30;1.00
15217;DHT22;7711;46.634;14.318;2024-01-07T08:17:41;2.40;17.60
15217;DHT22;7711;46.634;14.318;2024-01-07T08:20:10;2.40;1.00
15217;DHT22;7711;46.634;14.318;2024-01-07T08:22:37;2.30;1.00
15217;DHT22;7711;46.634;14.318;2024-01-07T08:25:05;2.40;1.00
15217;DHT22;7711;46.634;14.318;2024-01-07T08:27:33;2.30;1.00
15217;DHT22;7711;46.634;14.318;2024-01-07T08:30:01;2.30;1.00
15217;DHT22;7711;46.634;14.318;2024-01-07T08:32:28;2.30;1.00
15217;DHT22;7711;46.634;14.318;2024-01-07T08:34:55;2.40;1.00
15217;DHT22;7711;46.634;14.318;2024-01-07T08:37:22;2.30;1.00
15217;DHT22;7711;46.634;14.318;2024-01-07T08:39:49;2.30;1.00
15217;DHT22;7711;46.634;14.318;2024-01-07T08:42:16;2.40;1.00
15217;DHT22;7711;46.634;14.318;2024-01-07T08:44:44;2.40;1.00
15217;DHT22;7711;46.634;14.318;2024-01-07T08:47:12;2.40;1.00
15217;DHT22;7711;46.634;14.318;2024-01-07T08:49:40;2.50;1.00
15217;DHT22;7711;46.634;14.318;2024-01-07T08:52:07;2.50;1.00
15217;DHT22;7711;46.634;14.318;2024-01-07T08:54:34;2.50;1.00
15217;DHT22;7711;46.634;14.318;2024-01-07T08:57:01;2.60;1.00
15217;DHT22;7711;46.634;14.318;2024-01-07T08:59:28;2.50;1.00
15217;DHT22;7711;46.634;14.318;2024-01-07T09:01:56;2.50;1.00
15217;DHT22;7711;46.634;14.318;2024-01-07T09:04:23;2.60;1.00
15217;DHT22;7711;46.634;14.318;2024-01-07T09:06:50;2.60;1.00
15217;DHT22;7711;46.634;14.318;2024-01-07T09:09:17;2.60;1.00
15217;DHT22;7711;46.634;14.318;2024-01-07T09:11:44;2.60;1.00
15217;DHT22;7711;46.634;14.318;2024-01-07T09:14:11;2.70;1.00
15217;DHT22;7711;46.634;14.318;2024-01-07T09:16:40;2.60;1.00
15217;DHT22;7711;46.634;14.318;2024-01-07T09:19:08;2.70;1.00
15217;DHT22;7711;46.634;14.318;2024-01-07T09:21:35;2.70;1.00
15217;DHT22;7711;46.634;14.318;2024-01-07T09:24:03;2.70;1.00
15217;DHT22;7711;46.634;14.318;2024-01-07T09:26:30;2.70;1.00
15217;DHT22;7711;46.634;14.318;2024-01-07T09:28:57;2.80;1.00
15217;DHT22;7711;46.634;14.318;2024-01-07T09:31:24;2.80;1.00
15217;DHT22;7711;46.634;14.318;2024-01-07T09:33:51;2.80;1.00
15217;DHT22;7711;46.634;14.318;2024-01-07T09:36:19;2.90;1.00
15217;DHT22;7711;46.634;14.318;2024-01-07T09:38:46;2.80;1.00
15217;DHT22;7711;46.634;14.318;2024-01-07T09:41:13;2.90;1.00
15217;DHT22;7711;46.634;14.318;2024-01-07T09:43:40;2.90;1.00
15217;DHT22;7711;46.634;14.318;2024-01-07T09:46:07;2.90;1.00
15217;DHT22;7711;46.634;14.318;2024-01-07T09:48:34;2.90;1.00
15217;DHT22;7711;46.634;14.318;2024-01-07T09:51:01;3.00;1.00
15217;DHT22;7711;46.634;14.318;2024-01-07T09:53:31;3.00;1.00
15217;DHT22;7711;46.634;14.318;2024-01-07T09:56:06;3.10;1.00
15217;DHT22;7711;46.634;14.318;2024-01-07T09:58:34;3.10;1.00
15217;DHT22;7711;46.634;14.318;2024-01-07T10:01:02;3.10;1.00
15217;DHT22;7711;46.634;14.318;2024-01-07T10:03:30;3.20;1.00
15217;DHT22;7711;46.634;14.318;2024-01-07T10:05:57;3.30;1.00
15217;DHT22;7711;46.634;14.318;2024-01-07T10:08:24;3.30;1.00
15217;DHT22;7711;46.634;14.318;2024-01-07T10:10:52;3.30;1.00
15217;DHT22;7711;46.634;14.318;2024-01-07T10:13:20;3.30;1.00
15217;DHT22;7711;46.634;14.318;2024-01-07T10:15:49;3.20;1.00
15217;DHT22;7711;46.634;14.318;2024-01-07T10:18:16;3.20;1.00
15217;DHT22;7711;46.634;14.318;2024-01-07T10:20:44;3.10;1.00
15217;DHT22;7711;46.634;14.318;2024-01-07T10:23:11;3.20;1.00
15217;DHT22;7711;46.634;14.318;2024-01-07T10:25:39;3.30;1.00
15217;DHT22;7711;46.634;14.318;2024-01-07T10:28:07;3.30;1.00
15217;DHT22;7711;46.634;14.318;2024-01-07T10:30:38;3.30;1.00
15217;DHT22;7711;46.634;14.318;2024-01-07T10:33:07;3.50;1.00
15217;DHT22;7711;46.634;14.318;2024-01-07T10:35:35;3.50;1.00
15217;DHT22;7711;46.634;14.318;2024-01-07T10:38:03;3.60;1.00
15217;DHT22;7711;46.634;14.318;2024-01-07T10:40:31;3.60;1.00
15217;DHT22;7711;46.634;14.318;2024-01-07T10:42:59;3.70;1.00
15217;DHT22;7711;46.634;14.318;2024-01-07T10:45:28;3.70;1.00
15217;DHT22;7711;46.634;14.318;2024-01-07T10:47:59;3.80;1.00
15217;DHT22;7711;46.634;14.318;2024-01-07T10:50:31;3.90;1.00
15217;DHT22;7711;46.634;14.318;2024-01-07T10:53:03;3.90;1.00
15217;DHT22;7711;46.634;14.318;2024-01-07T10:55:34;3.90;1.00
15217;DHT22;7711;46.634;14.318;2024-01-07T10:58:03;3.80;1.00
15217;DHT22;7711;46.634;14.318;2024-01-07T11:00:32;3.90;1.00
15217;DHT22;7711;46.634;14.318;2024-01-07T11:03:07;4.00;1.00
15217;DHT22;7711;46.634;14.318;2024-01-07T11:05:41;4.10;1.00
15217;DHT22;7711;46.634;14.318;2024-01-07T11:08:15;4.10;1.00
15217;DHT22;7711;46.634;14.318;2024-01-07T11:10:48;4.10;1.00
15217;DHT22;7711;46.634;14.318;2024-01-07T11:13:32;4.20;1.00
15217;DHT22;7711;46.634;14.318;2024-01-07T11:16:02;4.20;1.00
15217;DHT22;7711;46.634;14.318;2024-01-07T11:18:30;4.20;1.00
15217;DHT22;7711;46.634;14.318;2024-01-07T11:20:59;4.20;1.00
15217;DHT22;7711;46.634;14.318;2024-01-07T11:23:29;4.20;1.00
15217;DHT22;7711;46.634;14.318;2024-01-07T11:25:58;4.30;1.00
15217;DHT22;7711;46.634;14.318;2024-01-07T11:28:46;4.40;1.00
15217;DHT22;7711;46.634;14.318;2024-01-07T11:31:16;4.40;1.00
15217;DHT22;7711;46.634;14.318;2024-01-07T11:33:45;4.40;1.00
15217;DHT22;7711;46.634;14.318;2024-01-07T11:36:13;4.50;1.00
15217;DHT22;7711;46.634;14.318;2024-01-07T11:38:44;4.40;1.00
15217;DHT22;7711;46.634;14.318;2024-01-07T11:41:12;4.50;1.00
15217;DHT22;7711;46.634;14.318;2024-01-07T11:43:52;4.50;1.00
15217;DHT22;7711;46.634;14.318;2024-01-07T11:46:22;4.40;1.00
15217;DHT22;7711;46.634;14.318;2024-01-07T11:48:52;4.40;1.00
15217;DHT22;7711;46.634;14.318;2024-01-07T11:51:19;4.40;1.00
15217;DHT22;7711;46.634;14.318;2024-01-07T11:53:46;4.50;1.00
15217;DHT22;7711;46.634;14.318;2024-01-07T11:56:14;4.60;1.00
15217;DHT22;7711;46.634;14.318;2024-01-07T11:58:41;4.50;1.00
15217;DHT22;7711;46.634;14.318;2024-01-07T12:01:08;4.40;1.00
15217;DHT22;7711;46.634;14.318;2024-01-07T12:03:36;4.40;1.00
15217;DHT22;7711;46.634;14.318;2024-01-07T12:06:04;4.50;1.00
15217;DHT22;7711;46.634;14.318;2024-01-07T12:08:31;4.60;1.00
15217;DHT22;7711;46.634;14.318;2024-01-07T12:10:59;4.60;1.00
15217;DHT22;7711;46.634;14.318;2024-01-07T12:13:26;4.70;1.00
15217;DHT22;7711;46.634;14.318;2024-01-07T12:15:54;4.60;1.00
15217;DHT22;7711;46.634;14.318;2024-01-07T12:18:21;4.60;1.00
15217;DHT22;7711;46.634;14.318;2024-01-07T12:20:58;4.60;1.00
15217;DHT22;7711;46.634;14.318;2024-01-07T12:23:25;4.50;1.00
15217;DHT22;7711;46.634;14.318;2024-01-07T12:25:53;4.60;1.00
15217;DHT22;7711;46.634;14.318;2024-01-07T12:28:21;4.60;1.00
15217;DHT22;7711;46.634;14.318;2024-01-07T12:30:48;4.60;1.00
15217;DHT22;7711;46.634;14.318;2024-01-07T12:33:17;4.50;1.00
15217;DHT22;7711;46.634;14.318;2024-01-07T12:35:45;4.50;1.00
15217;DHT22;7711;46.634;14.318;2024-01-07T12:38:13;4.40;1.00
15217;DHT22;7711;46.634;14.318;2024-01-07T12:40:40;4.40;1.00
15217;DHT22;7711;46.634;14.318;2024-01-07T12:43:07;4.50;1.00
15217;DHT22;7711;46.634;14.318;2024-01-07T12:45:34;4.40;1.00
15217;DHT22;7711;46.634;14.318;2024-01-07T12:48:02;4.40;1.00
15217;DHT22;7711;46.634;14.318;2024-01-07T12:50:29;4.50;1.00
15217;DHT22;7711;46.634;14.318;2024-01-07T12:52:57;4.50;1.00
15217;DHT22;7711;46.634;14.318;2024-01-07T12:55:25;4.40;1.00
15217;DHT22;7711;46.634;14.318;2024-01-07T12:57:53;4.40;1.00
15217;DHT22;7711;46.634;14.318;2024-01-07T13:00:20;4.40;1.00
15217;DHT22;7711;46.634;14.318;2024-01-07T13:02:48;4.40;1.00
15217;DHT22;7711;46.634;14.318;2024-01-07T13:05:15;4.40;1.00
15217;DHT22;7711;46.634;14.318;2024-01-07T13:07:43;4.30;1.00
15217;DHT22;7711;46.634;14.318;2024-01-07T13:10:10;4.40;1.00
15217;DHT22;7711;46.634;14.318;2024-01-07T13:12:38;4.40;1.00
15217;DHT22;7711;46.634;14.318;2024-01-07T13:15:06;4.40;1.00
15217;DHT22;7711;46.634;14.318;2024-01-07T13:17:33;4.30;1.00
15217;DHT22;7711;46.634;14.318;2024-01-07T13:20:00;4.30;1.00
15217;DHT22;7711;46.634;14.318;2024-01-07T13:22:27;4.40;1.00
15217;DHT22;7711;46.634;14.318;2024-01-07T13:24:54;4.40;1.00
15217;DHT22;7711;46.634;14.318;2024-01-07T13:27:21;4.30;1.00
15217;DHT22;7711;46.634;14.318;2024-01-07T13:29:50;4.30;1.00
15217;DHT22;7711;46.634;14.318;2024-01-07T13:32:17;4.20;1.00
15217;DHT22;7711;46.634;14.318;2024-01-07T13:34:44;4.20;1.00
15217;DHT22;7711;46.634;14.318;2024-01-07T13:37:11;4.10;1.00
15217;DHT22;7711;46.634;14.318;2024-01-07T13:39:39;4.20;1.00
15217;DHT22;7711;46.634;14.318;2024-01-07T13:42:06;4.20;1.00
15217;DHT22;7711;46.634;14.318;2024-01-07T13:44:33;4.20;1.00
15217;DHT22;7711;46.634;14.318;2024-01-07T13:47:02;4.20;1.00
15217;DHT22;7711;46.634;14.318;2024-01-07T13:49:30;4.20;1.00
15217;DHT22;7711;46.634;14.318;2024-01-07T13:51:58;4.20;1.00
15217;DHT22;7711;46.634;14.318;2024-01-07T13:54:25;4.20;1.00
15217;DHT22;7711;46.634;14.318;2024-01-07T13:56:52;4.40;1.00
15217;DHT22;7711;46.634;14.318;2024-01-07T13:59:19;4.30;1.00
15217;DHT22;7711;46.634;14.318;2024-01-07T14:01:48;4.30;1.00
15217;DHT22;7711;46.634;14.318;2024-01-07T14:04:17;4.30;1.00
15217;DHT22;7711;46.634;14.318;2024-01-07T14:06:44;4.30;1.00
15217;DHT22;7711;46.634;14.318;2024-01-07T14:09:12;4.20;1.00
15217;DHT22;7711;46.634;14.318;2024-01-07T14:11:39;4.20;1.00
15217;DHT22;7711;46.634;14.318;2024-01-07T14:14:06;4.10;1.00
15217;DHT22;7711;46.634;14.318;2024-01-07T14:16:33;4.20;1.00
15217;DHT22;7711;46.634;14.318;2024-01-07T14:19:00;4.10;1.00
15217;DHT22;7711;46.634;14.318;2024-01-07T14:21:28;4.10;1.00
15217;DHT22;7711;46.634;14.318;2024-01-07T14:23:55;4.10;1.00
15217;DHT22;7711;46.634;14.318;2024-01-07T14:26:22;4.10;1.00
15217;DHT22;7711;46.634;14.318;2024-01-07T14:28:49;4.00;1.00
15217;DHT22;7711;46.634;14.318;2024-01-07T14:31:17;4.00;1.00
15217;DHT22;7711;46.634;14.318;2024-01-07T14:33:43;4.10;1.00
15217;DHT22;7711;46.634;14.318;2024-01-07T14:36:10;4.00;1.00
15217;DHT22;7711;46.634;14.318;2024-01-07T14:38:44;4.00;1.00
15217;DHT22;7711;46.634;14.318;2024-01-07T14:41:11;4.00;1.00
15217;DHT22;7711;46.634;14.318;2024-01-07T14:43:38;4.00;1.00
15217;DHT22;7711;46.634;14.318;2024-01-07T14:46:06;4.00;1.00
15217;DHT22;7711;46.634;14.318;2024-01-07T14:48:34;4.00;1.00
15217;DHT22;7711;46.634;14.318;2024-01-07T14:51:02;4.00;1.00
15217;DHT22;7711;46.634;14.318;2024-01-07T14:53:29;4.00;1.00
15217;DHT22;7711;46.634;14.318;2024-01-07T14:55:58;4.00;1.00
15217;DHT22;7711;46.634;14.318;2024-01-07T14:58:25;4.00;1.00
15217;DHT22;7711;46.634;14.318;2024-01-07T15:00:52;4.00;1.00
15217;DHT22;7711;46.634;14.318;2024-01-07T15:03:19;4.00;1.00
15217;DHT22;7711;46.634;14.318;2024-01-07T15:05:46;3.90;1.00
15217;DHT22;7711;46.634;14.318;2024-01-07T15:08:13;3.90;1.00
15217;DHT22;7711;46.634;14.318;2024-01-07T15:10:40;3.90;6.70
15217;DHT22;7711;46.634;14.318;2024-01-07T15:13:09;3.90;45.20
15217;DHT22;7711;46.634;14.318;2024-01-07T15:15:36;4.00;88.10
15217;DHT22;7711;46.634;14.318;2024-01-07T15:18:04;4.00;95.00
15217;DHT22;7711;46.634;14.318;2024-01-07T15:20:31;3.90;99.90
15217;DHT22;7711;46.634;14.318;2024-01-07T15:22:58;3.90;99.90
15217;DHT22;7711;46.634;14.318;2024-01-07T15:25:24;3.80;99.90
15217;DHT22;7711;46.634;14.318;2024-01-07T15:27:51;3.80;99.90
15217;DHT22;7711;46.634;14.318;2024-01-07T15:30:20;3.80;99.90
15217;DHT22;7711;46.634;14.318;2024-01-07T15:32:47;3.80;99.90
15217;DHT22;7711;46.634;14.318;2024-01-07T15:35:14;3.80;99.90
15217;DHT22;7711;46.634;14.318;2024-01-07T15:37:41;3.80;99.90
15217;DHT22;7711;46.634;14.318;2024-01-07T15:40:09;3.70;99.90
15217;DHT22;7711;46.634;14.318;2024-01-07T15:42:37;3.70;99.90
15217;DHT22;7711;46.634;14.318;2024-01-07T15:45:04;3.70;99.90
15217;DHT22;7711;46.634;14.318;2024-01-07T15:47:33;3.70;99.90
15217;DHT22;7711;46.634;14.318;2024-01-07T15:50:00;3.70;99.90
15217;DHT22;7711;46.634;14.318;2024-01-07T15:52:28;3.70;99.90
15217;DHT22;7711;46.634;14.318;2024-01-07T15:54:55;3.70;99.90
15217;DHT22;7711;46.634;14.318;2024-01-07T15:57:22;3.60;99.90
15217;DHT22;7711;46.634;14.318;2024-01-07T15:59:49;3.70;99.90
15217;DHT22;7711;46.634;14.318;2024-01-07T16:02:16;3.60;99.90